Flight Track Log - Related Links

Times and Time Zones

All times are in EDT time to prevent confusion due to time zone crossing. See the QJE6200 flight status page for this flight to view local times or setup timezone preferences in your user account.

Time Position Orientation Groundspeed Altitude Reporting Facility
EDT Latitude Longitude Course Direction KTS MPH feet Rate Location/Type
Mon 11:42:39 PM -21.1896 149.1915 166° South 129 148 1,800  Level Aus ATC (RADAR)
Mon 11:43:20 PM -21.2186 149.1990 166° South 156 180 3,100 2,867 Climbing Aus ATC (RADAR)
Mon 11:44:09 PM -21.2726 149.2155 164° South 235 270 6,100 3,879 Climbing Aus ATC (RADAR)
Mon 11:44:59 PM -21.3312 149.2337 164° South 260 299 9,500 3,420 Climbing Aus ATC (RADAR)
Mon 11:45:49 PM -21.3978 149.2522 166° South 301 346 11,800 2,682 Climbing Aus ATC (RADAR)
Mon 11:46:24 PM -21.4514 149.2679 165° South 340 391 13,300 3,244 Climbing Aus ATC (RADAR)
Mon 11:48:04 PM -21.6075 149.3280 160° South 367 422 19,100 3,600 Climbing Aus ATC (RADAR)
Mon 11:48:59 PM -21.6926 149.3638 159° South 360 414 22,600 3,333 Climbing Aus ATC (RADAR)
Mon 11:49:34 PM -21.7483 149.3869 159° South 369 425 24,100 2,229 Climbing Aus ATC (RADAR)
Mon 11:50:09 PM -21.8058 149.4113 159° South 380 437 25,200 1,976 Climbing Aus ATC (RADAR)
Mon 11:50:59 PM -21.8916 149.4471 159° South 400 460 26,900 1,776 Climbing Aus ATC (RADAR)
Mon 11:52:14 PM -22.0284 149.5058 158° South 429 494 28,900 1,418 Climbing Aus ATC (RADAR)
Mon 11:52:49 PM -22.0965 149.5327 160° South 445 512 29,500 1,304 Climbing Aus ATC (RADAR)
Mon 11:53:23 PM -22.1658 149.5622 158° South 460 529 30,400 2,087 Climbing Aus ATC (RADAR)
Mon 11:53:58 PM -22.2346 149.5916 158° South 456 525 31,900 2,657 Climbing Aus ATC (RADAR)
Mon 11:54:33 PM -22.3015 149.6201 159° South 445 512 33,500 1,371 Climbing Aus ATC (RADAR)
Mon 11:55:08 PM -22.3719 149.6491 159° South 465 535 33,500 750 Level Aus ATC (RADAR)
Mon 11:55:53 PM -22.4628 149.6888 158° South 473 544 34,500 1,360 Climbing Aus ATC (RADAR)
Mon 11:56:23 PM -22.5242 149.7155 158° South 477 549 35,200 1,200 Climbing Aus ATC (RADAR)
Mon 11:57:08 PM -22.6185 149.7568 158° South 488 562 36,000 1,059 Climbing Aus ATC (RADAR)
Mon 11:57:48 PM -22.7027 149.7933 158° South 493 567 36,700 880 Climbing Aus ATC (RADAR)
Mon 11:58:23 PM -22.7771 149.8256 158° South 495 570 37,100 282 Climbing Aus ATC (RADAR)
Mon 11:59:13 PM -22.8801 149.8707 158° South 477 549 37,100  Level Aus ATC (RADAR)
Tue 12:00:15 AM -23.0030 149.9242 158° South 478 550 37,100  Level Aus ATC (RADAR)
Tue 12:01:03 AM -23.1062 149.9693 158° South 481 554 37,100  Level Aus ATC (RADAR)
Tue 12:01:38 AM -23.1796 150.0008 158° South 486 559 37,100  Level Aus ATC (RADAR)
Tue 12:02:48 AM -23.3273 150.0636 159° South 488 562 37,100  Level Aus ATC (RADAR)
Tue 12:03:38 AM -23.4316 150.1081 159° South 485 558 37,100  Level Aus ATC (RADAR)
Tue 12:04:23 AM -23.5249 150.1483 158° South 480 552 37,100  Level Aus ATC (RADAR)
Tue 12:04:57 AM -23.5968 150.1794 158° South 477 549 37,100  Level Aus ATC (RADAR)
Tue 12:05:33 AM -23.6685 150.2099 159° South 474 545 37,100  Level Aus ATC (RADAR)
Tue 12:06:12 AM -23.7496 150.2454 158° South 472 543 37,100  Level Aus ATC (RADAR)
Tue 12:06:52 AM -23.8313 150.2807 158° South 474 545 37,100  Level Aus ATC (RADAR)
Tue 12:07:42 AM -23.9336 150.3251 158° South 475 547 37,100  Level Aus ATC (RADAR)
Tue 12:08:42 AM -24.0526 150.3766 158° South 456 525 37,100  Level Aus ATC (RADAR)
Tue 12:09:27 AM -24.1391 150.4140 158° South 446 513 37,100  Level Aus ATC (RADAR)
Tue 12:10:02 AM -24.2065 150.4435 158° South 447 514 37,100  Level Aus ATC (RADAR)
Tue 12:10:47 AM -24.2925 150.4813 158° South 443 510 37,100  Level Aus ATC (RADAR)
Tue 12:11:47 AM -24.4080 150.5323 158° South 447 514 37,100  Level Aus ATC (RADAR)
Tue 12:12:41 AM -24.5129 150.5821 157° South 447 514 37,100  Level Aus ATC (RADAR)
Tue 12:13:41 AM -24.6182 150.6610 146° Southeast 454 522 37,100  Level Aus ATC (RADAR)
Tue 12:14:26 AM -24.6966 150.7184 146° Southeast 452 520 37,100  Level Aus ATC (RADAR)
Tue 12:15:01 AM -24.7569 150.7632 146° Southeast 446 513 37,100 -86 Level Aus ATC (RADAR)
Tue 12:15:36 AM -24.8173 150.8069 147° Southeast 443 510 37,000  Descending Aus ATC (RADAR)
Tue 12:16:21 AM -24.8945 150.8640 146° Southeast 441 507 37,100 71 Climbing Aus ATC (RADAR)
Tue 12:17:01 AM -24.9635 150.9145 146° Southeast 445 512 37,100  Level Aus ATC (RADAR)
Tue 12:18:16 AM -25.0941 151.0099 147° Southeast 454 522 37,100 -48 Level Aus ATC (RADAR)
Tue 12:19:06 AM -25.1824 151.0760 146° Southeast 460 529 37,000  Descending Aus ATC (RADAR)
Tue 12:19:50 AM -25.2613 151.1339 146° Southeast 453 521 37,100  Climbing Aus ATC (RADAR)
Tue 12:20:26 AM -25.3217 151.1785 146° Southeast 446 513 37,000 -75 Descending Aus ATC (RADAR)
Tue 12:21:10 AM -25.3986 151.2354 146° Southeast 442 509 37,000  Level Aus ATC (RADAR)
Tue 12:22:10 AM -25.5001 151.3110 146° Southeast 438 504 37,000  Level Aus ATC (RADAR)
Tue 12:23:05 AM -25.5929 151.3811 146° Southeast 438 504 37,000  Level Aus ATC (RADAR)
Tue 12:23:55 AM -25.6770 151.4424 147° Southeast 430 495 37,000  Level Aus ATC (RADAR)
Tue 12:24:40 AM -25.7514 151.4988 146° Southeast 428 493 37,000  Level Aus ATC (RADAR)
Tue 12:25:15 AM -25.8036 151.5516 138° Southeast 429 494 37,000  Level Aus ATC (RADAR)
Tue 12:26:10 AM -25.8872 151.6345 138° Southeast 436 502 37,000  Level Aus ATC (RADAR)
Tue 12:27:00 AM -25.9630 151.7112 138° Southeast 437 503 37,000  Level Aus ATC (RADAR)
Tue 12:28:00 AM -26.0542 151.8026 138° Southeast 442 509 37,000  Level Aus ATC (RADAR)
Tue 12:29:09 AM -26.1615 151.9104 138° Southeast 441 507 37,000  Level Aus ATC (RADAR)
Tue 12:29:39 AM -26.2077 151.9559 139° Southeast 440 506 37,000  Level Aus ATC (RADAR)
Tue 12:30:14 AM -26.2615 152.0096 138° Southeast 442 509 37,000 -494 Level Aus ATC (RADAR)
Tue 12:31:04 AM -26.3369 152.0860 138° Southeast 433 498 36,300 -988 Descending Aus ATC (RADAR)
Tue 12:31:39 AM -26.3888 152.1380 138° Southeast 425 489 35,600 -1,200 Descending Aus ATC (RADAR)
Tue 12:32:29 AM -26.4615 152.2118 138° Southeast 413 475 34,600 -1,200 Descending Aus ATC (RADAR)
Tue 12:33:34 AM -26.5477 152.2990 138° Southeast 372 428 33,300 -1,200 Descending Aus ATC (RADAR)
Tue 12:34:14 AM -26.5973 152.3498 138° Southeast 358 412 32,500 -1,200 Descending Aus ATC (RADAR)
Tue 12:34:49 AM -26.6400 152.3933 138° Southeast 352 405 31,800 -1,200 Descending Aus ATC (RADAR)
Tue 12:35:44 AM -26.7061 152.4597 138° Southeast 337 388 30,700 -1,212 Descending Aus ATC (RADAR)
Tue 12:36:33 AM -26.7600 152.5152 137° Southeast 307 353 29,700 -1,260 Descending Aus ATC (RADAR)
Tue 12:37:24 AM -26.8113 152.5664 138° Southeast 291 335 28,600 -1,304 Descending Aus ATC (RADAR)
Tue 12:38:28 AM -26.8759 152.6326 138° Southeast 282 325 27,200 -1,321 Descending Aus ATC (RADAR)
Tue 12:39:13 AM -26.9252 152.6583 155° Southeast 263 303 26,200 -1,350 Descending Aus ATC (RADAR)
Tue 12:39:48 AM -26.9638 152.6393 204° Southwest 258 297 25,400 -1,341 Descending Aus ATC (RADAR)
Tue 12:40:38 AM -26.9789 152.5673 257° West 302 348 24,300 -1,309 Descending Aus ATC (RADAR)
Tue 12:41:38 AM -26.9171 152.4967 314° West 317 365 23,000 -1,260 Descending Aus ATC (RADAR)
Tue 12:42:18 AM -26.8740 152.4537 318° Northwest 310 357 22,200 -960 Descending Aus ATC (RADAR)
Tue 12:42:53 AM -26.8371 152.4164 318° Northwest 304 350 21,800 -1,143 Descending Aus ATC (RADAR)
Tue 12:44:03 AM -26.7652 152.3453 319° Northwest 291 335 20,200 -1,350 Descending Aus ATC (RADAR)
Tue 12:44:53 AM -26.7072 152.3669 18° North 272 313 19,100 -1,267 Descending Aus ATC (RADAR)
Tue 12:45:33 AM -26.6979 152.4206 79° East 263 303 18,300 -1,297 Descending Aus ATC (RADAR)
Tue 12:46:07 AM -26.7096 152.4635 107° East 247 284 17,500 -957 Descending Aus ATC (RADAR)
Tue 12:47:07 AM -26.7682 152.5243 137° Southeast 297 342 16,800 -600 Descending Aus ATC (RADAR)
Tue 12:47:57 AM -26.8203 152.5778 137° Southeast 300 345 16,400 -1,148 Descending Aus ATC (RADAR)
Tue 12:49:02 AM -26.8861 152.6431 138° Southeast 280 322 14,600 -1,728 Descending Aus ATC (RADAR)
Tue 12:50:02 AM -26.9440 152.7025 138° Southeast 280 322 12,800 -1,800 Descending Aus ATC (RADAR)
Tue 12:50:52 AM -26.9924 152.7519 138° Southeast 275 316 11,300 -1,835 Descending Aus ATC (RADAR)
Tue 12:51:27 AM -27.0245 152.7862 136° Southeast 268 308 10,200 -1,875 Descending Aus ATC (RADAR)
Tue 12:52:12 AM -27.0651 152.8279 138° Southeast 257 296 8,800 -1,745 Descending Aus ATC (RADAR)
Tue 12:53:17 AM -27.1221 152.8866 138° Southeast 251 289 7,000 -1,364 Descending Aus ATC (RADAR)
Tue 12:54:02 AM -27.1463 152.9382 118° Southeast 251 289 6,300 -821 Descending Aus ATC (RADAR)
Tue 12:54:52 AM -27.1542 153.0062 97° East 254 292 5,700 -660 Descending Aus ATC (RADAR)
Tue 12:55:42 AM -27.1632 153.0700 99° East 241 277 5,200 -643 Descending Aus ATC (RADAR)
Tue 12:56:16 AM -27.1648 153.1115 93° East 226 260 4,800 -635 Descending Aus ATC (RADAR)
Tue 12:57:07 AM -27.1647 153.1729 90° East 231 266 4,300 -600 Descending Aus ATC (RADAR)
Tue 12:57:56 AM -27.1905 153.2122 126° Southeast 196 226 3,800 -577 Descending Aus ATC (RADAR)
Tue 12:58:51 AM -27.2281 153.2191 171° South 166 191 3,300 -783 Descending Aus ATC (RADAR)
Tue 12:59:51 AM -27.2699 153.1949 207° Southwest 165 190 2,300 -900 Descending Aus ATC (RADAR)
Tue 01:00:31 AM -27.2945 153.1809 207° Southwest 151 174 1,800 -720 Descending Aus ATC (RADAR)
Tue 01:01:06 AM -27.3135 153.1700 207° Southwest 130 150 1,400 -635 Descending Aus ATC (RADAR)
Tue 01:01:56 AM -27.3361 153.1572 207° Southwest 111 128 900 -600 Descending Aus ATC (RADAR)
Tue 01:02:46 AM -27.3589 153.1446 206° Southwest 111 128 400 -600 Descending Aus ATC (RADAR)

Login

Don't have an account? Register now (free) for customized features, flight alerts, and more!